Time;durP1;ratioP1;P1;durP2;ratioP2;P2;SDS_P1;SDS_P2;PMS_P1;PMS_P2;Temp;Humidity;BMP_temperature;BMP_pressure;BME280_temperature;BME280_humidity;BME280_pressure;Samples;Min_cycle;Max_cycle;Signal;HPM_P1;HPM_P2
2022/10/22 00:01:11;;;;;;;14.77;10.50;;;12.90;99.90;;;;;;5116614;27;20201;-74
2022/10/22 00:03:37;;;;;;;18.70;11.33;;;12.90;99.90;;;;;;5134922;27;20239;-76
2022/10/22 00:06:03;;;;;;;15.13;10.63;;;12.90;99.90;;;;;;5134867;27;20423;-76
2022/10/22 00:08:29;;;;;;;16.10;11.07;;;12.90;99.90;;;;;;5134965;27;20515;-71
2022/10/22 00:10:54;;;;;;;16.83;12.67;;;12.90;99.90;;;;;;5116424;27;20652;-76
2022/10/22 00:13:20;;;;;;;17.20;11.50;;;13.00;99.90;;;;;;5134835;27;20178;-72
2022/10/22 00:15:46;;;;;;;13.70;10.37;;;13.00;99.90;;;;;;5134772;27;20678;-72
2022/10/22 00:18:11;;;;;;;15.00;11.20;;;13.00;99.90;;;;;;5134686;27;20423;-76
2022/10/22 00:20:37;;;;;;;19.33;11.40;;;13.00;99.90;;;;;;5134659;27;20222;-72
2022/10/22 00:23:03;;;;;;;17.43;12.30;;;13.00;99.90;;;;;;5134616;27;20205;-71
2022/10/22 00:25:28;;;;;;;18.77;12.23;;;13.10;99.90;;;;;;5116084;28;20265;-76
2022/10/22 00:27:54;;;;;;;16.30;11.63;;;13.10;99.90;;;;;;5116351;28;20186;-74
2022/10/22 00:30:20;;;;;;;17.50;11.90;;;13.10;99.90;;;;;;5135101;28;20203;-76
2022/10/22 00:32:45;;;;;;;19.50;12.27;;;13.10;99.90;;;;;;5116382;27;20171;-76
2022/10/22 00:35:11;;;;;;;15.83;11.30;;;13.10;99.90;;;;;;5120290;27;20285;-71
2022/10/22 00:37:37;;;;;;;15.97;11.20;;;13.10;99.90;;;;;;5138913;27;20171;-71
2022/10/22 00:40:03;;;;;;;19.27;12.70;;;13.10;99.90;;;;;;5120408;27;20230;-76
2022/10/22 00:42:29;;;;;;;20.57;11.50;;;13.10;99.90;;;;;;5138762;27;20177;-76
2022/10/22 00:45:06;;;;;;;17.63;12.67;;;13.10;99.90;;;;;;5139151;27;20442;-72
2022/10/22 00:47:43;;;;;;;16.13;13.10;;;13.10;99.90;;;;;;5120322;27;20198;-76
2022/10/22 00:50:20;;;;;;;22.80;13.47;;;13.10;99.90;;;;;;5139089;27;20763;-76
2022/10/22 00:52:46;;;;;;;17.33;12.93;;;13.10;99.90;;;;;;5138841;27;20391;-76
2022/10/22 00:55:13;;;;;;;17.60;12.13;;;13.10;99.90;;;;;;5138954;27;20507;-72
2022/10/22 00:57:39;;;;;;;18.50;12.93;;;13.10;99.90;;;;;;5138573;27;20915;-71
2022/10/22 01:00:06;;;;;;;17.20;12.43;;;13.10;99.90;;;;;;5120122;27;20486;-76
2022/10/22 01:02:32;;;;;;;16.77;12.63;;;13.10;99.90;;;;;;5138368;27;20812;-76
2022/10/22 01:04:58;;;;;;;17.30;13.47;;;13.20;99.90;;;;;;5138708;27;20534;-71
2022/10/22 01:07:24;;;;;;;18.83;13.80;;;13.20;99.90;;;;;;5119973;27;20540;-71
2022/10/22 01:10:20;;;;;;;18.57;13.30;;;13.20;99.90;;;;;;5138610;27;20206;-76
2022/10/22 01:12:45;;;;;;;18.57;13.83;;;13.20;99.90;;;;;;5031150;27;20431;-71
2022/10/22 01:15:22;;;;;;;21.30;14.43;;;13.20;99.90;;;;;;5138074;27;20439;-76
2022/10/22 01:17:57;;;;;;;20.00;14.03;;;13.30;99.90;;;;;;5119834;27;20662;-76
2022/10/22 01:20:28;;;;;;;19.53;13.37;;;13.30;99.90;;;;;;5138056;27;20469;-76
2022/10/22 01:22:57;;;;;;;18.17;12.47;;;13.30;99.90;;;;;;5138127;27;20409;-75
2022/10/22 01:25:30;;;;;;;20.33;14.23;;;13.40;99.90;;;;;;5116007;28;20476;-76
2022/10/22 01:28:21;;;;;;;21.20;14.70;;;13.40;99.90;;;;;;5116118;28;20510;-71
2022/10/22 01:30:51;;;;;;;19.03;14.50;;;13.40;99.90;;;;;;5117477;28;20518;-72
2022/10/22 01:33:21;;;;;;;18.73;14.00;;;13.30;99.90;;;;;;5116261;28;20508;-76
2022/10/22 01:35:47;;;;;;;23.87;14.27;;;13.40;99.90;;;;;;5115928;28;20434;-76
2022/10/22 01:38:18;;;;;;;19.03;12.93;;;13.30;99.90;;;;;;5117195;28;20396;-72
2022/10/22 01:40:45;;;;;;;21.47;13.77;;;13.40;99.90;;;;;;5115877;28;20463;-76
2022/10/22 01:43:11;;;;;;;22.47;15.67;;;13.30;99.90;;;;;;5117179;28;20454;-72
2022/10/22 01:45:49;;;;;;;22.27;14.47;;;13.30;99.90;;;;;;5114886;28;20424;-71
2022/10/22 01:48:52;;;;;;;17.53;13.87;;;13.40;99.90;;;;;;5115682;28;20420;-72
2022/10/22 01:51:20;;;;;;;21.83;14.67;;;13.40;99.90;;;;;;5115742;28;20443;-71
2022/10/22 01:53:59;;;;;;;23.40;14.90;;;13.40;99.90;;;;;;5117069;28;20804;-72
2022/10/22 01:56:47;;;;;;;18.17;14.40;;;13.40;99.90;;;;;;5115617;28;20514;-72
2022/10/22 01:59:25;;;;;;;21.50;14.50;;;13.40;99.90;;;;;;5115187;28;20476;-71
2022/10/22 02:02:00;;;;;;;22.27;14.87;;;13.40;99.90;;;;;;5116934;28;20400;-72
2022/10/22 02:04:37;;;;;;;19.43;14.23;;;13.30;99.90;;;;;;5115559;28;20462;-76
2022/10/22 02:07:06;;;;;;;21.73;14.57;;;13.30;99.90;;;;;;5115526;28;20992;-72
2022/10/22 02:09:33;;;;;;;19.97;15.20;;;13.30;99.90;;;;;;5116726;28;20513;-76
2022/10/22 02:12:01;;;;;;;19.43;14.53;;;13.30;99.90;;;;;;5116662;28;20400;-72
2022/10/22 02:14:30;;;;;;;22.53;15.53;;;13.30;99.90;;;;;;5116379;27;20940;-76
2022/10/22 02:16:58;;;;;;;22.03;15.43;;;13.30;99.90;;;;;;5116481;28;20432;-76
2022/10/22 02:19:35;;;;;;;20.70;14.67;;;13.30;99.90;;;;;;5115138;28;20552;-72
2022/10/22 02:22:01;;;;;;;20.57;14.70;;;13.40;99.90;;;;;;5116472;28;20404;-71
2022/10/22 02:24:28;;;;;;;21.07;14.47;;;13.30;99.90;;;;;;5124020;27;20498;-76
2022/10/22 02:27:18;;;;;;;21.20;14.60;;;13.30;99.90;;;;;;5136873;27;20411;-76
2022/10/22 02:29:55;;;;;;;22.53;15.30;;;13.30;99.90;;;;;;5137148;27;20438;-72
2022/10/22 02:32:25;;;;;;;21.47;15.00;;;13.30;99.90;;;;;;5118362;27;20498;-76
2022/10/22 02:34:52;;;;;;;21.07;14.13;;;13.30;99.90;;;;;;5137082;27;20439;-76
2022/10/22 02:37:19;;;;;;;23.17;15.03;;;13.20;99.90;;;;;;5136628;27;20448;-71
2022/10/22 02:39:46;;;;;;;22.73;16.13;;;13.20;99.90;;;;;;5136790;27;20474;-71
2022/10/22 02:42:11;;;;;;;23.30;15.50;;;13.20;99.90;;;;;;5118292;27;20422;-76
2022/10/22 02:44:37;;;;;;;21.90;16.30;;;13.20;99.90;;;;;;5118130;27;20439;-76
2022/10/22 02:47:03;;;;;;;23.03;15.97;;;13.20;99.90;;;;;;5117989;27;20167;-71
2022/10/22 02:49:29;;;;;;;25.03;16.60;;;13.20;99.90;;;;;;5136674;27;20758;-71
2022/10/22 02:51:55;;;;;;;24.20;16.70;;;13.20;99.90;;;;;;5136323;27;20490;-71
2022/10/22 02:54:21;;;;;;;21.30;16.27;;;13.20;99.90;;;;;;5136125;27;20271;-76
2022/10/22 02:56:46;;;;;;;24.83;16.10;;;13.20;99.90;;;;;;5117763;27;20402;-71
2022/10/22 02:59:12;;;;;;;23.70;16.13;;;13.20;99.90;;;;;;5117503;27;20746;-72
2022/10/22 03:01:37;;;;;;;23.77;17.30;;;13.20;99.90;;;;;;5117758;27;20632;-71
2022/10/22 03:04:03;;;;;;;27.70;17.27;;;13.10;99.90;;;;;;5136237;27;20181;-72
2022/10/22 03:06:29;;;;;;;27.10;16.30;;;13.10;99.90;;;;;;5135957;27;20191;-71
2022/10/22 03:08:55;;;;;;;25.93;16.67;;;13.10;99.90;;;;;;5117631;27;20427;-72
2022/10/22 03:11:20;;;;;;;25.40;16.70;;;13.10;99.90;;;;;;5117463;27;20194;-71
2022/10/22 03:13:46;;;;;;;23.90;15.57;;;13.10;99.90;;;;;;5136042;27;20652;-72
2022/10/22 03:16:11;;;;;;;27.20;18.97;;;13.10;99.90;;;;;;5135782;27;20235;-71
2022/10/22 03:18:37;;;;;;;25.60;16.53;;;13.10;99.90;;;;;;5135673;27;20667;-72
2022/10/22 03:21:23;;;;;;;23.43;17.80;;;13.00;99.90;;;;;;5117369;27;20199;-76
2022/10/22 03:23:50;;;;;;;24.00;17.87;;;13.10;99.90;;;;;;5135712;27;20197;-71
2022/10/22 03:26:15;;;;;;;29.53;17.87;;;13.10;99.90;;;;;;5135655;27;20422;-71
2022/10/22 03:28:42;;;;;;;27.50;18.60;;;13.10;99.90;;;;;;5135590;27;20423;-76
2022/10/22 03:31:07;;;;;;;26.77;19.10;;;13.10;99.90;;;;;;5135560;27;20185;-71
2022/10/22 03:33:33;;;;;;;23.23;16.90;;;13.10;99.90;;;;;;5117103;27;20462;-76
2022/10/22 03:35:59;;;;;;;25.60;18.77;;;13.10;99.90;;;;;;5117003;27;20251;-76
2022/10/22 03:38:25;;;;;;;27.37;19.30;;;13.10;99.90;;;;;;5135506;27;20227;-76
2022/10/22 03:40:51;;;;;;;25.97;19.73;;;13.10;99.90;;;;;;5135438;27;20538;-76
2022/10/22 03:43:17;;;;;;;26.90;18.40;;;13.20;99.90;;;;;;5116972;27;20799;-71
2022/10/22 03:45:43;;;;;;;26.73;19.23;;;13.20;99.90;;;;;;5116779;27;20431;-71
2022/10/22 03:48:08;;;;;;;27.93;19.40;;;13.20;99.90;;;;;;5135246;27;20163;-76
2022/10/22 03:50:34;;;;;;;26.57;19.00;;;13.30;99.90;;;;;;5135184;27;20551;-76
2022/10/22 03:53:00;;;;;;;28.60;20.00;;;13.20;99.90;;;;;;5135128;27;20171;-72
2022/10/22 03:55:25;;;;;;;27.30;19.10;;;13.30;99.90;;;;;;5116732;27;20240;-75
2022/10/22 03:57:51;;;;;;;24.43;18.23;;;13.30;99.90;;;;;;5135137;27;20175;-72
2022/10/22 04:00:17;;;;;;;26.10;20.50;;;13.30;99.90;;;;;;5135452;27;20242;-76
2022/10/22 04:02:43;;;;;;;27.17;19.90;;;13.30;99.90;;;;;;5135173;27;20181;-76
2022/10/22 04:05:08;;;;;;;25.87;19.03;;;13.30;99.90;;;;;;5135397;27;20435;-71
2022/10/22 04:07:34;;;;;;;23.03;17.10;;;13.20;99.90;;;;;;5134883;27;20171;-72
2022/10/22 04:10:00;;;;;;;28.10;17.97;;;13.20;99.90;;;;;;5116361;27;20203;-72
2022/10/22 04:12:25;;;;;;;28.70;18.20;;;13.20;99.90;;;;;;5116595;27;20171;-76
2022/10/22 04:14:51;;;;;;;26.60;18.00;;;13.20;99.90;;;;;;5135309;27;20602;-71
2022/10/22 04:17:17;;;;;;;24.47;17.40;;;13.20;99.90;;;;;;5134830;27;20171;-72
2022/10/22 04:19:42;;;;;;;30.90;19.53;;;13.10;99.90;;;;;;5135073;27;20574;-75
2022/10/22 04:22:08;;;;;;;24.90;17.53;;;13.10;99.90;;;;;;5134809;27;20178;-72
2022/10/22 04:24:34;;;;;;;25.67;16.77;;;13.10;99.90;;;;;;5134613;27;20609;-76
2022/10/22 04:26:59;;;;;;;25.57;18.67;;;13.10;99.90;;;;;;5116307;28;20532;-76
2022/10/22 04:29:25;;;;;;;23.30;16.63;;;13.10;99.90;;;;;;5116392;28;20289;-76
2022/10/22 04:31:51;;;;;;;27.47;18.37;;;13.10;99.90;;;;;;5134726;27;20172;-72
2022/10/22 04:34:16;;;;;;;22.70;16.47;;;13.00;99.90;;;;;;5116290;28;20186;-76
2022/10/22 04:36:42;;;;;;;29.80;17.97;;;13.00;99.90;;;;;;5116212;28;20181;-74
2022/10/22 04:39:08;;;;;;;25.20;17.70;;;13.00;99.90;;;;;;5134610;28;20237;-76
2022/10/22 04:41:37;;;;;;;25.43;17.33;;;13.00;99.90;;;;;;5134665;28;20167;-72
2022/10/22 04:44:04;;;;;;;24.87;16.90;;;12.90;99.90;;;;;;5116090;28;20521;-72
2022/10/22 04:46:32;;;;;;;24.77;18.40;;;12.90;99.90;;;;;;5134437;28;21000;-77
2022/10/22 04:48:58;;;;;;;25.00;18.40;;;12.90;99.90;;;;;;5116157;28;20450;-77
2022/10/22 04:51:25;;;;;;;26.50;17.77;;;12.90;99.90;;;;;;5134454;28;20463;-77
2022/10/22 04:53:51;;;;;;;25.10;16.23;;;12.90;99.90;;;;;;5134461;28;20175;-71
2022/10/22 04:56:20;;;;;;;23.63;17.60;;;12.90;99.90;;;;;;5134358;28;20474;-76
2022/10/22 04:58:47;;;;;;;21.80;16.47;;;12.90;99.90;;;;;;5116035;28;20935;-72
2022/10/22 05:01:16;;;;;;;26.30;17.30;;;12.90;99.90;;;;;;5115819;28;20480;-72
2022/10/22 05:03:42;;;;;;;19.83;15.97;;;12.90;99.90;;;;;;5115971;28;20419;-76
2022/10/22 05:06:09;;;;;;;19.90;16.13;;;12.90;99.90;;;;;;5134309;28;20419;-72
2022/10/22 05:08:35;;;;;;;23.93;17.90;;;12.90;99.90;;;;;;5115900;28;20802;-72
2022/10/22 05:11:00;;;;;;;21.70;16.33;;;12.90;99.90;;;;;;5115848;28;20423;-76
2022/10/22 05:13:26;;;;;;;25.50;18.80;;;12.90;99.90;;;;;;5134378;28;20771;-75
2022/10/22 05:15:52;;;;;;;26.30;17.53;;;12.90;99.90;;;;;;5115844;28;20195;-76
2022/10/22 05:18:20;;;;;;;21.70;16.63;;;12.90;99.90;;;;;;5134223;28;20411;-76
2022/10/22 05:20:46;;;;;;;21.90;17.13;;;12.90;99.90;;;;;;5135597;27;20202;-71
2022/10/22 05:23:12;;;;;;;25.77;17.23;;;12.90;99.90;;;;;;5138097;27;20411;-71
2022/10/22 05:25:38;;;;;;;29.07;17.97;;;12.90;99.90;;;;;;5138074;27;20577;-71
2022/10/22 05:28:04;;;;;;;23.03;17.20;;;12.80;99.90;;;;;;5137963;27;20175;-71
2022/10/22 05:30:29;;;;;;;23.43;17.73;;;12.90;99.90;;;;;;5119482;27;20427;-71
2022/10/22 05:32:55;;;;;;;23.43;17.00;;;12.80;99.90;;;;;;5119498;27;20787;-71
2022/10/22 05:35:21;;;;;;;23.57;18.70;;;12.90;99.90;;;;;;5119429;27;20225;-71
2022/10/22 05:37:46;;;;;;;24.87;17.77;;;12.90;99.90;;;;;;5137940;27;20171;-75
2022/10/22 05:40:12;;;;;;;23.77;17.00;;;12.90;99.90;;;;;;5119352;27;20240;-72
2022/10/22 05:42:38;;;;;;;24.93;17.90;;;12.90;99.90;;;;;;5137920;27;20162;-75
2022/10/22 05:45:04;;;;;;;28.63;18.13;;;13.00;99.90;;;;;;5138086;27;20211;-71
2022/10/22 05:47:29;;;;;;;28.90;18.57;;;13.00;99.90;;;;;;5119294;27;20206;-72
2022/10/22 05:49:56;;;;;;;23.83;18.30;;;13.00;99.90;;;;;;5137959;27;20550;-76
2022/10/22 05:52:22;;;;;;;25.93;17.87;;;13.00;99.90;;;;;;5119210;27;20171;-71
2022/10/22 05:54:48;;;;;;;23.10;16.17;;;13.10;99.90;;;;;;5137657;27;20459;-71
2022/10/22 05:57:14;;;;;;;27.47;18.00;;;13.00;99.90;;;;;;5118955;27;20391;-76
2022/10/22 05:59:39;;;;;;;23.27;15.80;;;13.10;99.90;;;;;;5118727;27;20265;-76
2022/10/22 06:02:05;;;;;;;24.90;16.30;;;13.10;99.90;;;;;;5118979;27;20265;-74
2022/10/22 06:04:31;;;;;;;23.23;15.50;;;13.20;99.90;;;;;;5137561;27;20234;-75
2022/10/22 06:06:57;;;;;;;19.90;16.00;;;13.20;99.90;;;;;;5137310;27;20411;-72
2022/10/22 06:09:33;;;;;;;23.00;15.50;;;13.30;99.90;;;;;;5118902;27;20182;-76
2022/10/22 06:11:59;;;;;;;22.77;16.47;;;13.30;99.90;;;;;;5137184;27;20486;-71
2022/10/22 06:14:25;;;;;;;21.87;15.57;;;13.40;99.90;;;;;;5118806;27;20459;-76
2022/10/22 06:16:51;;;;;;;43.30;30.20;;;13.40;99.90;;;;;;5137037;27;20444;-76
2022/10/22 06:19:20;;;;;;;22.93;15.50;;;13.50;99.90;;;;;;5118440;27;20478;-72
2022/10/22 06:21:47;;;;;;;22.80;16.93;;;13.50;99.90;;;;;;5118482;27;20411;-72
2022/10/22 06:24:13;;;;;;;21.23;17.10;;;13.60;99.90;;;;;;5136689;27;20493;-71
2022/10/22 06:26:39;;;;;;;22.60;15.90;;;13.70;99.90;;;;;;5118512;27;20553;-76
2022/10/22 06:29:06;;;;;;;21.87;16.37;;;13.70;99.90;;;;;;5118261;27;20422;-72
2022/10/22 06:31:38;;;;;;;23.00;16.40;;;13.80;99.90;;;;;;5136525;27;20410;-76
2022/10/22 06:34:06;;;;;;;23.90;18.20;;;13.90;99.90;;;;;;5136981;27;20552;-76
2022/10/22 06:36:32;;;;;;;23.43;17.67;;;14.00;99.90;;;;;;5136681;27;20746;-76
2022/10/22 06:38:58;;;;;;;22.33;16.57;;;14.00;99.90;;;;;;5118206;27;20526;-71
2022/10/22 06:41:24;;;;;;;20.87;16.97;;;14.10;99.90;;;;;;5136644;27;20434;-71
2022/10/22 06:43:50;;;;;;;22.57;16.20;;;14.20;99.90;;;;;;5136481;27;20175;-72
2022/10/22 06:46:17;;;;;;;22.93;18.00;;;14.30;99.90;;;;;;5136333;27;20433;-76
2022/10/22 06:48:51;;;;;;;18.47;16.07;;;14.30;99.90;;;;;;5118385;27;20594;-76
2022/10/22 06:51:17;;;;;;;22.93;16.57;;;14.40;99.90;;;;;;5136442;27;20503;-76
2022/10/22 06:53:42;;;;;;;21.70;16.47;;;14.40;99.90;;;;;;5117903;27;20769;-76
2022/10/22 06:56:10;;;;;;;22.50;16.43;;;14.40;99.90;;;;;;5117809;27;20432;-71
2022/10/22 06:58:36;;;;;;;27.00;17.43;;;14.50;99.90;;;;;;5117850;27;20248;-76
2022/10/22 07:01:11;;;;;;;21.50;17.30;;;14.50;99.90;;;;;;5117627;27;20435;-72
2022/10/22 07:03:38;;;;;;;28.73;19.10;;;14.60;99.90;;;;;;5117864;27;20223;-76
2022/10/22 07:06:06;;;;;;;24.30;17.47;;;14.70;99.90;;;;;;5136037;27;20435;-72
2022/10/22 07:08:32;;;;;;;23.70;17.10;;;14.70;99.90;;;;;;5136173;27;20468;-76
2022/10/22 07:11:18;;;;;;;24.30;17.20;;;14.80;99.90;;;;;;5117490;27;20427;-72
2022/10/22 07:13:44;;;;;;;27.30;17.10;;;14.90;99.90;;;;;;5136101;27;20514;-72
2022/10/22 07:16:10;;;;;;;24.77;18.07;;;15.00;99.90;;;;;;5135796;27;20931;-76
2022/10/22 07:18:37;;;;;;;28.73;17.13;;;15.00;99.90;;;;;;5117297;27;20955;-72
2022/10/22 07:21:04;;;;;;;25.33;17.97;;;15.10;99.90;;;;;;5135668;27;20426;-76
2022/10/22 07:23:30;;;;;;;26.27;18.87;;;15.20;99.90;;;;;;5135694;27;20419;-72
2022/10/22 07:25:56;;;;;;;25.10;17.77;;;15.40;99.90;;;;;;5135509;27;20450;-76
2022/10/22 07:28:22;;;;;;;23.60;18.03;;;15.50;99.90;;;;;;5135716;27;20434;-72
2022/10/22 07:30:48;;;;;;;24.53;17.83;;;15.60;99.90;;;;;;5135618;27;20423;-72
2022/10/22 07:33:14;;;;;;;22.40;18.10;;;15.70;99.90;;;;;;5135598;27;20430;-76
2022/10/22 07:35:40;;;;;;;24.37;17.33;;;15.80;99.90;;;;;;5117054;27;20218;-76
2022/10/22 07:38:07;;;;;;;25.40;17.40;;;15.80;99.90;;;;;;5135399;27;20917;-72
2022/10/22 07:40:33;;;;;;;27.50;18.50;;;16.00;99.90;;;;;;5116963;27;20540;-76
2022/10/22 07:42:59;;;;;;;24.30;17.10;;;16.30;99.90;;;;;;5134602;27;20668;-76
2022/10/22 07:45:24;;;;;;;23.67;17.40;;;16.60;99.90;;;;;;5135583;27;20466;-72
2022/10/22 07:47:50;;;;;;;25.33;18.07;;;16.80;99.90;;;;;;5135287;27;20181;-75
2022/10/22 07:50:16;;;;;;;25.53;17.30;;;17.00;99.90;;;;;;5116988;27;20199;-76
2022/10/22 07:52:42;;;;;;;17.93;16.00;;;17.00;99.90;;;;;;5116695;27;20174;-76
2022/10/22 07:55:08;;;;;;;23.23;17.77;;;17.00;99.90;;;;;;5116818;27;20435;-76
2022/10/22 07:57:35;;;;;;;24.80;17.80;;;17.20;99.90;;;;;;5116757;27;20644;-75
2022/10/22 08:00:02;;;;;;;24.20;17.33;;;17.50;99.90;;;;;;5116747;27;20531;-73
2022/10/22 08:02:28;;;;;;;20.97;17.40;;;17.80;99.90;;;;;;5116692;27;20454;-76
2022/10/22 08:04:55;;;;;;;26.00;18.00;;;18.00;99.90;;;;;;5116473;27;20818;-72
2022/10/22 08:07:21;;;;;;;24.10;18.00;;;18.30;99.90;;;;;;5134947;27;20187;-76
2022/10/22 08:09:47;;;;;;;28.03;17.77;;;18.60;99.90;;;;;;5116749;27;20443;-76
2022/10/22 08:12:13;;;;;;;23.10;19.03;;;18.80;99.90;;;;;;5116460;27;20767;-72
2022/10/22 08:14:38;;;;;;;23.40;17.47;;;19.00;99.90;;;;;;5134858;27;20437;-72
2022/10/22 08:17:04;;;;;;;23.57;18.27;;;19.10;99.90;;;;;;5116502;27;20183;-72
2022/10/22 08:19:31;;;;;;;26.93;17.27;;;19.20;99.90;;;;;;5134540;27;20743;-72
2022/10/22 08:21:57;;;;;;;28.90;19.33;;;19.10;99.90;;;;;;5134750;27;20171;-72
2022/10/22 08:24:23;;;;;;;28.67;17.43;;;19.00;99.90;;;;;;5116129;28;20485;-72
2022/10/22 08:26:48;;;;;;;22.93;16.80;;;18.90;99.90;;;;;;5116331;28;20413;-72
2022/10/22 08:29:14;;;;;;;22.70;17.43;;;18.80;99.90;;;;;;5116144;28;20196;-72
2022/10/22 08:31:40;;;;;;;24.30;17.17;;;18.70;99.90;;;;;;5116245;28;20176;-77
2022/10/22 08:34:07;;;;;;;22.37;18.27;;;18.60;99.90;;;;;;5115969;28;20882;-72
2022/10/22 08:36:33;;;;;;;26.73;19.10;;;18.50;99.90;;;;;;5114855;28;20176;-76
2022/10/22 08:38:58;;;;;;;24.27;17.00;;;18.40;99.90;;;;;;5115675;28;20467;-76
2022/10/22 08:41:24;;;;;;;22.07;16.93;;;18.40;99.90;;;;;;5134137;27;20598;-77
2022/10/22 08:44:14;;;;;;;25.43;17.07;;;18.40;99.90;;;;;;5134827;28;20187;-72
2022/10/22 08:46:56;;;;;;;23.83;17.70;;;18.60;99.90;;;;;;5134602;28;20825;-76
2022/10/22 08:49:25;;;;;;;19.97;16.40;;;18.90;99.90;;;;;;5115913;27;20419;-76
2022/10/22 08:51:51;;;;;;;23.73;16.37;;;19.10;99.90;;;;;;5134268;28;20406;-72
2022/10/22 08:54:48;;;;;;;24.07;16.83;;;19.20;99.90;;;;;;5133130;27;20947;-72
2022/10/22 08:57:54;;;;;;;21.97;15.67;;;19.30;99.90;;;;;;5136481;27;20960;-76
2022/10/22 09:00:28;;;;;;;18.73;15.20;;;19.40;99.90;;;;;;5117857;27;20481;-78
2022/10/22 09:03:15;;;;;;;20.60;15.30;;;19.50;99.90;;;;;;5117847;27;20447;-76
2022/10/22 09:05:59;;;;;;;21.27;16.33;;;19.50;99.90;;;;;;5118067;27;20993;-74
2022/10/22 09:08:25;;;;;;;22.07;14.63;;;19.60;99.90;;;;;;5136613;27;20433;-72
2022/10/22 09:11:00;;;;;;;18.53;13.83;;;19.60;99.90;;;;;;5119380;27;20433;-75
2022/10/22 09:13:26;;;;;;;20.20;15.47;;;19.70;99.90;;;;;;5138442;27;20177;-73
2022/10/22 09:15:59;;;;;;;16.27;12.53;;;19.80;99.90;;;;;;5137108;27;20836;-76
2022/10/22 09:18:43;;;;;;;17.73;13.33;;;19.80;99.90;;;;;;5119752;27;20177;-77
2022/10/22 09:21:14;;;;;;;16.70;12.13;;;19.90;99.90;;;;;;5138133;27;20438;-72
2022/10/22 09:23:50;;;;;;;14.20;12.13;;;19.90;99.90;;;;;;5118640;27;20938;-71
2022/10/22 09:26:16;;;;;;;14.00;12.50;;;20.00;99.90;;;;;;5117525;27;20442;-77
2022/10/22 09:28:42;;;;;;;16.93;11.50;;;20.10;99.90;;;;;;5136364;27;20461;-76
2022/10/22 09:31:13;;;;;;;16.37;11.97;;;20.30;99.90;;;;;;5117832;27;20221;-72
2022/10/22 09:33:41;;;;;;;18.50;14.20;;;20.40;99.90;;;;;;5136182;27;20642;-72
2022/10/22 09:36:07;;;;;;;31.87;22.70;;;20.40;99.90;;;;;;5117665;27;20435;-77
2022/10/22 09:38:39;;;;;;;24.87;21.47;;;20.50;99.90;;;;;;5117842;27;20791;-72
2022/10/22 09:41:05;;;;;;;16.20;12.67;;;20.50;99.90;;;;;;5119356;27;20828;-77
2022/10/22 09:43:32;;;;;;;15.30;11.33;;;20.60;99.90;;;;;;5137917;27;20445;-75
2022/10/22 09:46:03;;;;;;;14.10;11.40;;;20.60;99.90;;;;;;5137539;27;20418;-72
2022/10/22 09:48:36;;;;;;;13.47;10.17;;;20.70;99.90;;;;;;5119385;27;20931;-77
2022/10/22 09:51:09;;;;;;;13.70;10.80;;;20.70;99.90;;;;;;5119139;27;20438;-72
2022/10/22 09:53:43;;;;;;;14.10;10.43;;;20.80;99.90;;;;;;5137510;27;20882;-72
2022/10/22 09:56:24;;;;;;;14.00;10.07;;;20.90;99.90;;;;;;5118992;27;20489;-77
2022/10/22 09:58:50;;;;;;;14.40;11.63;;;20.90;99.90;;;;;;5119059;27;21004;-72
2022/10/22 10:01:21;;;;;;;13.40;9.53;;;21.00;99.90;;;;;;5137389;27;20927;-74
2022/10/22 10:03:48;;;;;;;12.30;9.97;;;21.10;99.90;;;;;;5118975;27;20942;-76
2022/10/22 10:06:20;;;;;;;10.63;9.20;;;21.20;99.90;;;;;;5136479;27;20419;-72
2022/10/22 10:08:47;;;;;;;16.73;9.13;;;21.30;99.90;;;;;;5137458;27;20518;-73
2022/10/22 10:11:27;;;;;;;11.20;8.87;;;21.30;99.90;;;;;;5118602;27;20423;-77
2022/10/22 10:14:16;;;;;;;11.83;8.93;;;21.50;99.90;;;;;;5137222;27;20500;-77
2022/10/22 10:17:03;;;;;;;13.10;10.47;;;21.50;99.90;;;;;;5117881;27;20434;-77
2022/10/22 10:19:37;;;;;;;12.67;9.03;;;21.50;99.90;;;;;;5118401;27;21014;-77
2022/10/22 10:22:29;;;;;;;14.50;10.63;;;21.60;99.90;;;;;;5116671;27;20400;-72
2022/10/22 10:25:31;;;;;;;14.83;10.70;;;21.60;99.90;;;;;;5136744;27;20479;-72
2022/10/22 10:28:31;;;;;;;11.63;8.97;;;21.70;99.90;;;;;;5118649;27;20455;-72
2022/10/22 10:30:59;;;;;;;8.67;6.13;;;21.80;99.90;;;;;;5136613;27;20431;-72
2022/10/22 10:33:52;;;;;;;8.10;7.00;;;21.90;99.90;;;;;;5136711;27;20411;-77
2022/10/22 10:36:39;;;;;;;8.63;6.87;;;21.90;99.50;;;;;;5116060;27;20467;-77
2022/10/22 10:39:30;;;;;;;6.77;6.07;;;21.90;99.50;;;;;;5115791;27;20455;-77
2022/10/22 10:42:28;;;;;;;19.07;13.03;;;22.00;99.10;;;;;;5116228;27;20431;-72
2022/10/22 10:45:14;;;;;;;32.50;20.03;;;22.00;99.00;;;;;;5134610;27;20463;-78
2022/10/22 10:48:21;;;;;;;10.10;8.30;;;22.00;98.80;;;;;;5098572;27;20511;-77
2022/10/22 10:51:12;;;;;;;12.17;10.33;;;22.10;98.90;;;;;;5117475;27;20480;-77
2022/10/22 10:53:46;;;;;;;10.07;8.77;;;22.10;98.40;;;;;;5117728;27;20525;-72
2022/10/22 10:56:36;;;;;;;12.77;9.00;;;22.20;98.60;;;;;;5135871;27;20427;-71
2022/10/22 10:59:22;;;;;;;8.50;6.93;;;22.20;98.80;;;;;;5117518;27;20742;-72
2022/10/22 11:02:14;;;;;;;7.33;6.60;;;22.30;98.70;;;;;;5116473;27;20405;-78
2022/10/22 11:04:42;;;;;;;12.03;6.83;;;22.40;98.60;;;;;;5134522;27;20473;-74
2022/10/22 11:07:13;;;;;;;8.97;7.67;;;22.50;98.30;;;;;;5134026;27;20770;-72
2022/10/22 11:09:49;;;;;;;9.50;7.00;;;22.60;98.40;;;;;;5134471;27;20650;-73
2022/10/22 11:12:22;;;;;;;11.63;6.50;;;22.70;97.70;;;;;;5134787;27;20394;-73
2022/10/22 11:15:00;;;;;;;10.03;7.03;;;22.70;97.80;;;;;;5116275;27;20440;-72
2022/10/22 11:17:33;;;;;;;13.67;9.07;;;22.70;97.70;;;;;;5115604;27;20430;-73
2022/10/22 11:20:13;;;;;;;11.63;9.03;;;22.70;98.00;;;;;;5151808;27;20490;-74
2022/10/22 11:22:46;;;;;;;15.87;11.20;;;22.60;98.00;;;;;;5151711;27;20554;-73
2022/10/22 11:25:12;;;;;;;11.60;8.53;;;22.60;97.80;;;;;;5152133;27;20471;-72
2022/10/22 11:27:50;;;;;;;9.30;8.30;;;22.60;97.50;;;;;;5152205;27;20418;-71
2022/10/22 11:30:21;;;;;;;10.70;7.70;;;22.60;97.50;;;;;;5152769;27;20210;-71
2022/10/22 11:32:54;;;;;;;7.77;6.20;;;22.60;97.60;;;;;;5152793;27;20548;-71
2022/10/22 11:35:27;;;;;;;10.23;6.83;;;22.60;97.50;;;;;;5155271;27;20438;-73
2022/10/22 11:37:55;;;;;;;8.60;6.40;;;22.40;97.10;;;;;;5155062;27;20411;-73
2022/10/22 11:40:24;;;;;;;12.13;6.53;;;22.40;97.30;;;;;;5136893;27;20491;-73
2022/10/22 11:42:55;;;;;;;8.80;6.73;;;22.30;97.40;;;;;;5138808;27;20431;-70
2022/10/22 11:45:23;;;;;;;11.27;6.37;;;22.20;96.90;;;;;;5131388;27;20450;-72
2022/10/22 11:48:19;;;;;;;10.93;6.23;;;22.20;97.00;;;;;;5112539;27;20412;-72
2022/10/22 11:50:58;;;;;;;8.80;6.97;;;22.10;97.40;;;;;;5114547;27;21008;-71
2022/10/22 11:53:24;;;;;;;8.83;6.80;;;22.10;97.00;;;;;;5107615;27;20443;-72
2022/10/22 11:55:52;;;;;;;9.60;6.63;;;22.10;95.90;;;;;;5129935;27;20516;-71
2022/10/22 11:58:27;;;;;;;9.60;7.10;;;22.10;97.00;;;;;;5113102;27;20225;-71
2022/10/22 12:00:54;;;;;;;7.70;5.87;;;22.10;96.70;;;;;;5132607;27;20458;-77
2022/10/22 12:03:42;;;;;;;8.47;6.00;;;22.10;96.70;;;;;;5114990;27;20428;-74
2022/10/22 12:06:11;;;;;;;5.43;4.93;;;22.20;96.20;;;;;;5111417;28;20509;-74
2022/10/22 12:08:45;;;;;;;6.83;5.70;;;22.20;96.10;;;;;;5108430;27;20476;-72
2022/10/22 12:11:10;;;;;;;5.47;4.30;;;22.30;95.80;;;;;;5111908;27;20940;-75
2022/10/22 12:13:59;;;;;;;6.23;4.67;;;22.30;94.60;;;;;;5131328;27;20434;-72
2022/10/22 12:16:34;;;;;;;6.30;4.40;;;22.30;94.70;;;;;;5131304;27;20773;-72
2022/10/22 12:19:04;;;;;;;6.70;5.17;;;22.40;91.80;;;;;;5131467;27;20411;-73
2022/10/22 12:21:32;;;;;;;5.70;4.90;;;22.40;91.00;;;;;;5131972;27;20419;-73
2022/10/22 12:23:59;;;;;;;9.27;5.00;;;22.50;90.80;;;;;;5128539;27;20511;-73
2022/10/22 12:26:30;;;;;;;8.63;6.07;;;22.50;90.80;;;;;;5117789;27;20538;-73
2022/10/22 12:29:01;;;;;;;6.50;4.90;;;22.60;91.00;;;;;;5108321;28;21005;-73
2022/10/22 12:31:34;;;;;;;7.37;6.27;;;22.60;90.90;;;;;;5111329;28;20498;-73
2022/10/22 12:34:00;;;;;;;6.30;5.50;;;22.60;91.00;;;;;;5098058;28;20443;-72
2022/10/22 12:36:27;;;;;;;8.70;6.87;;;22.60;91.10;;;;;;5111963;28;21004;-72
2022/10/22 12:38:53;;;;;;;8.73;6.70;;;22.60;91.40;;;;;;5130551;28;20173;-72
2022/10/22 12:41:21;;;;;;;37.23;24.20;;;22.70;91.60;;;;;;5111289;28;20427;-72
2022/10/22 12:43:46;;;;;;;9.90;7.00;;;22.60;91.20;;;;;;5128936;28;20216;-72
2022/10/22 12:46:15;;;;;;;8.83;7.93;;;22.60;90.90;;;;;;5129808;27;20456;-72